sensor_id;sensor_type;location;lat;lon;timestamp;P1;durP1;ratioP1;P2;durP2;ratioP2
68800;SDS011;55784;50.734;7.086;2023-11-22T00:00:09;11.30;;;4.67;;
68800;SDS011;55784;50.734;7.086;2023-11-22T00:02:35;12.10;;;4.07;;
68800;SDS011;55784;50.734;7.086;2023-11-22T00:05:00;12.50;;;4.60;;
68800;SDS011;55784;50.734;7.086;2023-11-22T00:07:25;11.33;;;4.37;;
68800;SDS011;55784;50.734;7.086;2023-11-22T00:09:54;12.60;;;4.72;;
68800;SDS011;55784;50.734;7.086;2023-11-22T00:12:19;10.63;;;4.40;;
68800;SDS011;55784;50.734;7.086;2023-11-22T00:14:45;11.90;;;4.33;;
68800;SDS011;55784;50.734;7.086;2023-11-22T00:17:11;12.63;;;4.97;;
68800;SDS011;55784;50.734;7.086;2023-11-22T00:19:36;11.60;;;4.90;;
68800;SDS011;55784;50.734;7.086;2023-11-22T00:22:01;11.83;;;4.30;;
68800;SDS011;55784;50.734;7.086;2023-11-22T00:24:37;11.77;;;4.65;;
68800;SDS011;55784;50.734;7.086;2023-11-22T00:27:03;13.50;;;5.05;;
68800;SDS011;55784;50.734;7.086;2023-11-22T00:29:28;12.47;;;5.10;;
68800;SDS011;55784;50.734;7.086;2023-11-22T00:31:54;12.80;;;4.97;;
68800;SDS011;55784;50.734;7.086;2023-11-22T00:34:19;12.13;;;4.60;;
68800;SDS011;55784;50.734;7.086;2023-11-22T00:36:44;12.93;;;4.73;;
68800;SDS011;55784;50.734;7.086;2023-11-22T00:39:10;13.60;;;5.35;;
68800;SDS011;55784;50.734;7.086;2023-11-22T00:41:38;13.30;;;5.15;;
68800;SDS011;55784;50.734;7.086;2023-11-22T00:44:03;14.77;;;5.00;;
68800;SDS011;55784;50.734;7.086;2023-11-22T00:46:30;12.82;;;5.20;;
68800;SDS011;55784;50.734;7.086;2023-11-22T00:48:56;13.27;;;5.10;;
68800;SDS011;55784;50.734;7.086;2023-11-22T00:51:22;13.68;;;5.22;;
68800;SDS011;55784;50.734;7.086;2023-11-22T00:53:47;13.93;;;5.70;;
68800;SDS011;55784;50.734;7.086;2023-11-22T00:56:12;13.27;;;5.33;;
68800;SDS011;55784;50.734;7.086;2023-11-22T00:58:38;13.07;;;5.23;;
68800;SDS011;55784;50.734;7.086;2023-11-22T01:01:03;14.03;;;5.70;;
68800;SDS011;55784;50.734;7.086;2023-11-22T01:03:29;13.52;;;5.70;;
68800;SDS011;55784;50.734;7.086;2023-11-22T01:05:54;13.43;;;5.60;;
68800;SDS011;55784;50.734;7.086;2023-11-22T01:08:19;13.87;;;5.90;;
68800;SDS011;55784;50.734;7.086;2023-11-22T01:10:45;14.73;;;5.70;;
68800;SDS011;55784;50.734;7.086;2023-11-22T01:13:11;14.63;;;5.68;;
68800;SDS011;55784;50.734;7.086;2023-11-22T01:15:36;16.23;;;5.90;;
68800;SDS011;55784;50.734;7.086;2023-11-22T01:18:01;13.80;;;5.57;;
68800;SDS011;55784;50.734;7.086;2023-11-22T01:20:27;15.05;;;5.88;;
68800;SDS011;55784;50.734;7.086;2023-11-22T01:22:52;13.18;;;4.93;;
68800;SDS011;55784;50.734;7.086;2023-11-22T01:25:17;14.23;;;5.47;;
68800;SDS011;55784;50.734;7.086;2023-11-22T01:27:44;14.37;;;5.63;;
68800;SDS011;55784;50.734;7.086;2023-11-22T01:30:10;13.52;;;5.80;;
68800;SDS011;55784;50.734;7.086;2023-11-22T01:32:37;13.80;;;5.63;;
68800;SDS011;55784;50.734;7.086;2023-11-22T01:35:02;15.23;;;6.07;;
68800;SDS011;55784;50.734;7.086;2023-11-22T01:37:30;16.38;;;6.20;;
68800;SDS011;55784;50.734;7.086;2023-11-22T01:39:56;14.30;;;5.80;;
68800;SDS011;55784;50.734;7.086;2023-11-22T01:42:22;13.93;;;6.07;;
68800;SDS011;55784;50.734;7.086;2023-11-22T01:44:48;13.82;;;6.13;;
68800;SDS011;55784;50.734;7.086;2023-11-22T01:47:14;15.43;;;6.00;;
68800;SDS011;55784;50.734;7.086;2023-11-22T01:49:40;14.93;;;6.10;;
68800;SDS011;55784;50.734;7.086;2023-11-22T01:52:06;15.17;;;6.47;;
68800;SDS011;55784;50.734;7.086;2023-11-22T01:54:31;15.80;;;6.28;;
68800;SDS011;55784;50.734;7.086;2023-11-22T01:56:58;14.48;;;5.70;;
68800;SDS011;55784;50.734;7.086;2023-11-22T01:59:24;13.93;;;5.97;;
68800;SDS011;55784;50.734;7.086;2023-11-22T02:01:51;13.93;;;6.00;;
68800;SDS011;55784;50.734;7.086;2023-11-22T02:04:17;15.80;;;6.70;;
68800;SDS011;55784;50.734;7.086;2023-11-22T02:06:42;13.75;;;5.35;;
68800;SDS011;55784;50.734;7.086;2023-11-22T02:09:08;14.30;;;5.83;;
68800;SDS011;55784;50.734;7.086;2023-11-22T02:11:38;15.00;;;5.95;;
68800;SDS011;55784;50.734;7.086;2023-11-22T02:14:04;14.60;;;5.78;;
68800;SDS011;55784;50.734;7.086;2023-11-22T02:16:32;13.23;;;5.60;;
68800;SDS011;55784;50.734;7.086;2023-11-22T02:18:57;13.80;;;5.53;;
68800;SDS011;55784;50.734;7.086;2023-11-22T02:21:23;13.27;;;5.70;;
68800;SDS011;55784;50.734;7.086;2023-11-22T02:23:48;14.07;;;5.50;;
68800;SDS011;55784;50.734;7.086;2023-11-22T02:26:13;13.30;;;5.70;;
68800;SDS011;55784;50.734;7.086;2023-11-22T02:32:05;12.95;;;5.30;;
68800;SDS011;55784;50.734;7.086;2023-11-22T02:34:30;13.97;;;5.33;;
68800;SDS011;55784;50.734;7.086;2023-11-22T02:36:56;13.52;;;5.65;;
68800;SDS011;55784;50.734;7.086;2023-11-22T02:39:21;13.20;;;5.43;;
68800;SDS011;55784;50.734;7.086;2023-11-22T02:41:53;14.52;;;5.55;;
68800;SDS011;55784;50.734;7.086;2023-11-22T02:44:18;15.17;;;6.10;;
68800;SDS011;55784;50.734;7.086;2023-11-22T02:46:44;14.50;;;5.67;;
68800;SDS011;55784;50.734;7.086;2023-11-22T02:49:09;13.67;;;5.53;;
68800;SDS011;55784;50.734;7.086;2023-11-22T02:51:35;14.15;;;5.47;;
68800;SDS011;55784;50.734;7.086;2023-11-22T02:54:00;14.47;;;6.20;;
68800;SDS011;55784;50.734;7.086;2023-11-22T02:56:25;15.70;;;6.20;;
68800;SDS011;55784;50.734;7.086;2023-11-22T02:58:50;14.90;;;5.73;;
68800;SDS011;55784;50.734;7.086;2023-11-22T03:01:16;14.13;;;5.70;;
68800;SDS011;55784;50.734;7.086;2023-11-22T03:03:41;15.30;;;6.10;;
68800;SDS011;55784;50.734;7.086;2023-11-22T03:06:09;13.77;;;5.77;;
68800;SDS011;55784;50.734;7.086;2023-11-22T03:08:34;14.25;;;6.03;;
68800;SDS011;55784;50.734;7.086;2023-11-22T03:11:00;13.60;;;6.07;;
68800;SDS011;55784;50.734;7.086;2023-11-22T03:13:34;15.60;;;6.00;;
68800;SDS011;55784;50.734;7.086;2023-11-22T03:15:59;13.90;;;5.40;;
68800;SDS011;55784;50.734;7.086;2023-11-22T03:18:25;14.75;;;6.00;;
68800;SDS011;55784;50.734;7.086;2023-11-22T03:20:51;14.03;;;5.47;;
68800;SDS011;55784;50.734;7.086;2023-11-22T03:23:19;14.07;;;5.80;;
68800;SDS011;55784;50.734;7.086;2023-11-22T03:25:44;16.00;;;5.93;;
68800;SDS011;55784;50.734;7.086;2023-11-22T03:28:10;15.27;;;5.85;;
68800;SDS011;55784;50.734;7.086;2023-11-22T03:30:35;14.50;;;5.50;;
68800;SDS011;55784;50.734;7.086;2023-11-22T03:33:00;15.63;;;5.60;;
68800;SDS011;55784;50.734;7.086;2023-11-22T03:35:26;15.13;;;6.50;;
68800;SDS011;55784;50.734;7.086;2023-11-22T03:37:51;14.57;;;5.90;;
68800;SDS011;55784;50.734;7.086;2023-11-22T03:40:16;16.73;;;6.30;;
68800;SDS011;55784;50.734;7.086;2023-11-22T03:42:42;15.03;;;6.37;;
68800;SDS011;55784;50.734;7.086;2023-11-22T03:45:07;14.50;;;5.97;;
68800;SDS011;55784;50.734;7.086;2023-11-22T03:47:33;15.85;;;6.35;;
68800;SDS011;55784;50.734;7.086;2023-11-22T03:49:59;14.70;;;5.97;;
68800;SDS011;55784;50.734;7.086;2023-11-22T03:52:24;16.50;;;6.20;;
68800;SDS011;55784;50.734;7.086;2023-11-22T03:54:50;15.67;;;6.63;;
68800;SDS011;55784;50.734;7.086;2023-11-22T03:57:15;15.15;;;6.15;;
68800;SDS011;55784;50.734;7.086;2023-11-22T03:59:41;14.33;;;5.90;;
68800;SDS011;55784;50.734;7.086;2023-11-22T04:02:08;14.40;;;6.00;;
68800;SDS011;55784;50.734;7.086;2023-11-22T04:04:33;15.90;;;6.13;;
68800;SDS011;55784;50.734;7.086;2023-11-22T04:06:58;16.55;;;6.28;;
68800;SDS011;55784;50.734;7.086;2023-11-22T04:09:24;16.23;;;5.65;;
68800;SDS011;55784;50.734;7.086;2023-11-22T04:11:49;14.60;;;5.43;;
68800;SDS011;55784;50.734;7.086;2023-11-22T04:14:15;14.93;;;5.80;;
68800;SDS011;55784;50.734;7.086;2023-11-22T04:16:40;15.93;;;5.77;;
68800;SDS011;55784;50.734;7.086;2023-11-22T04:19:05;15.43;;;5.90;;
68800;SDS011;55784;50.734;7.086;2023-11-22T04:21:31;15.40;;;5.77;;
68800;SDS011;55784;50.734;7.086;2023-11-22T04:23:56;12.95;;;5.90;;
68800;SDS011;55784;50.734;7.086;2023-11-22T04:26:21;14.23;;;5.28;;
68800;SDS011;55784;50.734;7.086;2023-11-22T04:28:47;14.00;;;5.70;;
68800;SDS011;55784;50.734;7.086;2023-11-22T04:31:12;13.73;;;5.70;;
68800;SDS011;55784;50.734;7.086;2023-11-22T04:33:37;15.67;;;5.87;;
68800;SDS011;55784;50.734;7.086;2023-11-22T04:36:03;14.10;;;5.50;;
68800;SDS011;55784;50.734;7.086;2023-11-22T04:38:29;13.65;;;5.22;;
68800;SDS011;55784;50.734;7.086;2023-11-22T04:40:54;13.67;;;5.43;;
68800;SDS011;55784;50.734;7.086;2023-11-22T04:43:20;13.73;;;5.67;;
68800;SDS011;55784;50.734;7.086;2023-11-22T04:45:45;15.27;;;5.30;;
68800;SDS011;55784;50.734;7.086;2023-11-22T04:48:10;13.23;;;5.03;;
68800;SDS011;55784;50.734;7.086;2023-11-22T04:50:36;15.13;;;5.50;;
68800;SDS011;55784;50.734;7.086;2023-11-22T04:53:01;14.23;;;5.30;;
68800;SDS011;55784;50.734;7.086;2023-11-22T04:55:27;14.27;;;5.60;;
68800;SDS011;55784;50.734;7.086;2023-11-22T04:57:53;16.30;;;6.00;;
68800;SDS011;55784;50.734;7.086;2023-11-22T05:00:19;13.75;;;5.43;;
68800;SDS011;55784;50.734;7.086;2023-11-22T05:02:45;14.90;;;5.35;;
68800;SDS011;55784;50.734;7.086;2023-11-22T05:05:11;14.50;;;5.33;;
68800;SDS011;55784;50.734;7.086;2023-11-22T05:07:36;14.73;;;6.00;;
68800;SDS011;55784;50.734;7.086;2023-11-22T05:10:02;15.43;;;5.43;;
68800;SDS011;55784;50.734;7.086;2023-11-22T05:12:28;13.15;;;4.88;;
68800;SDS011;55784;50.734;7.086;2023-11-22T05:14:53;14.57;;;5.27;;
68800;SDS011;55784;50.734;7.086;2023-11-22T05:17:19;14.20;;;5.53;;
68800;SDS011;55784;50.734;7.086;2023-11-22T05:19:45;15.35;;;5.63;;
68800;SDS011;55784;50.734;7.086;2023-11-22T05:22:10;15.13;;;5.63;;
68800;SDS011;55784;50.734;7.086;2023-11-22T05:24:35;14.80;;;5.57;;
68800;SDS011;55784;50.734;7.086;2023-11-22T05:27:03;14.82;;;5.50;;
68800;SDS011;55784;50.734;7.086;2023-11-22T05:29:29;15.38;;;6.00;;
68800;SDS011;55784;50.734;7.086;2023-11-22T05:31:54;14.03;;;5.10;;
68800;SDS011;55784;50.734;7.086;2023-11-22T05:34:19;13.80;;;5.03;;
68800;SDS011;55784;50.734;7.086;2023-11-22T05:36:45;14.60;;;5.50;;
68800;SDS011;55784;50.734;7.086;2023-11-22T05:39:10;13.23;;;5.20;;
68800;SDS011;55784;50.734;7.086;2023-11-22T05:41:37;14.70;;;5.65;;
68800;SDS011;55784;50.734;7.086;2023-11-22T05:44:03;15.23;;;5.57;;
68800;SDS011;55784;50.734;7.086;2023-11-22T05:46:28;13.80;;;5.32;;
68800;SDS011;55784;50.734;7.086;2023-11-22T05:48:54;14.57;;;5.37;;
68800;SDS011;55784;50.734;7.086;2023-11-22T05:51:19;14.00;;;5.30;;
68800;SDS011;55784;50.734;7.086;2023-11-22T05:53:46;16.63;;;5.72;;
68800;SDS011;55784;50.734;7.086;2023-11-22T05:56:11;13.43;;;4.97;;
68800;SDS011;55784;50.734;7.086;2023-11-22T05:58:37;13.17;;;4.93;;
68800;SDS011;55784;50.734;7.086;2023-11-22T06:01:06;13.30;;;4.85;;
68800;SDS011;55784;50.734;7.086;2023-11-22T06:03:32;14.00;;;4.67;;
68800;SDS011;55784;50.734;7.086;2023-11-22T06:05:58;14.50;;;5.18;;
68800;SDS011;55784;50.734;7.086;2023-11-22T06:08:23;14.23;;;5.27;;
68800;SDS011;55784;50.734;7.086;2023-11-22T06:10:49;13.25;;;4.60;;
68800;SDS011;55784;50.734;7.086;2023-11-22T06:13:16;10.25;;;3.90;;
68800;SDS011;55784;50.734;7.086;2023-11-22T06:15:41;10.47;;;4.00;;
68800;SDS011;55784;50.734;7.086;2023-11-22T06:18:07;11.07;;;3.60;;
68800;SDS011;55784;50.734;7.086;2023-11-22T06:20:32;9.53;;;3.37;;
68800;SDS011;55784;50.734;7.086;2023-11-22T06:22:58;9.95;;;3.50;;
68800;SDS011;55784;50.734;7.086;2023-11-22T06:25:23;11.45;;;3.53;;
68800;SDS011;55784;50.734;7.086;2023-11-22T06:27:49;11.00;;;3.53;;
68800;SDS011;55784;50.734;7.086;2023-11-22T06:30:15;9.40;;;3.38;;
68800;SDS011;55784;50.734;7.086;2023-11-22T06:32:40;11.37;;;3.30;;
68800;SDS011;55784;50.734;7.086;2023-11-22T06:35:07;10.32;;;3.30;;
68800;SDS011;55784;50.734;7.086;2023-11-22T06:37:34;11.65;;;3.42;;
68800;SDS011;55784;50.734;7.086;2023-11-22T06:39:59;11.13;;;3.03;;
68800;SDS011;55784;50.734;7.086;2023-11-22T06:42:25;8.70;;;2.90;;
68800;SDS011;55784;50.734;7.086;2023-11-22T06:44:51;9.38;;;2.90;;
68800;SDS011;55784;50.734;7.086;2023-11-22T06:47:18;9.30;;;2.90;;
68800;SDS011;55784;50.734;7.086;2023-11-22T06:49:46;9.90;;;2.75;;
68800;SDS011;55784;50.734;7.086;2023-11-22T06:52:11;10.83;;;3.37;;
68800;SDS011;55784;50.734;7.086;2023-11-22T06:54:37;7.93;;;2.72;;
68800;SDS011;55784;50.734;7.086;2023-11-22T06:57:03;11.07;;;3.10;;
68800;SDS011;55784;50.734;7.086;2023-11-22T06:59:28;9.73;;;2.70;;
68800;SDS011;55784;50.734;7.086;2023-11-22T07:01:54;10.33;;;2.73;;
68800;SDS011;55784;50.734;7.086;2023-11-22T07:04:20;7.28;;;2.38;;
68800;SDS011;55784;50.734;7.086;2023-11-22T07:06:46;9.30;;;2.55;;
68800;SDS011;55784;50.734;7.086;2023-11-22T07:09:11;7.87;;;2.50;;
68800;SDS011;55784;50.734;7.086;2023-11-22T07:11:38;9.05;;;2.40;;
68800;SDS011;55784;50.734;7.086;2023-11-22T07:14:04;7.63;;;2.30;;
68800;SDS011;55784;50.734;7.086;2023-11-22T07:16:29;8.20;;;2.50;;
68800;SDS011;55784;50.734;7.086;2023-11-22T07:18:56;9.05;;;2.55;;
68800;SDS011;55784;50.734;7.086;2023-11-22T07:21:21;8.13;;;2.47;;
68800;SDS011;55784;50.734;7.086;2023-11-22T07:23:47;9.00;;;2.40;;
68800;SDS011;55784;50.734;7.086;2023-11-22T07:26:12;6.53;;;1.90;;
68800;SDS011;55784;50.734;7.086;2023-11-22T07:28:39;10.13;;;3.80;;
68800;SDS011;55784;50.734;7.086;2023-11-22T07:31:07;6.50;;;1.90;;
68800;SDS011;55784;50.734;7.086;2023-11-22T07:33:32;7.20;;;2.00;;
68800;SDS011;55784;50.734;7.086;2023-11-22T07:35:58;8.83;;;2.50;;
68800;SDS011;55784;50.734;7.086;2023-11-22T07:38:24;7.32;;;2.20;;
68800;SDS011;55784;50.734;7.086;2023-11-22T07:40:50;6.53;;;1.97;;
68800;SDS011;55784;50.734;7.086;2023-11-22T07:43:16;6.97;;;2.08;;
68800;SDS011;55784;50.734;7.086;2023-11-22T07:45:41;8.60;;;2.10;;
68800;SDS011;55784;50.734;7.086;2023-11-22T07:48:08;7.00;;;2.00;;
68800;SDS011;55784;50.734;7.086;2023-11-22T07:50:37;10.73;;;2.30;;
68800;SDS011;55784;50.734;7.086;2023-11-22T07:53:02;8.52;;;2.50;;
68800;SDS011;55784;50.734;7.086;2023-11-22T07:55:29;9.85;;;2.58;;
68800;SDS011;55784;50.734;7.086;2023-11-22T07:57:55;7.40;;;2.50;;
68800;SDS011;55784;50.734;7.086;2023-11-22T08:00:20;7.83;;;2.60;;
68800;SDS011;55784;50.734;7.086;2023-11-22T08:02:50;8.02;;;2.47;;
68800;SDS011;55784;50.734;7.086;2023-11-22T08:05:19;7.43;;;2.22;;
68800;SDS011;55784;50.734;7.086;2023-11-22T08:07:48;7.75;;;2.33;;
68800;SDS011;55784;50.734;7.086;2023-11-22T08:10:14;6.93;;;2.33;;
68800;SDS011;55784;50.734;7.086;2023-11-22T08:12:47;7.95;;;2.42;;
68800;SDS011;55784;50.734;7.086;2023-11-22T08:15:15;8.35;;;2.67;;
68800;SDS011;55784;50.734;7.086;2023-11-22T08:17:41;8.53;;;2.10;;
68800;SDS011;55784;50.734;7.086;2023-11-22T08:20:07;7.60;;;2.25;;
68800;SDS011;55784;50.734;7.086;2023-11-22T08:22:38;9.35;;;2.47;;
68800;SDS011;55784;50.734;7.086;2023-11-22T08:25:04;7.18;;;2.60;;
68800;SDS011;55784;50.734;7.086;2023-11-22T08:27:33;7.55;;;2.25;;
68800;SDS011;55784;50.734;7.086;2023-11-22T08:29:59;7.23;;;1.97;;
68800;SDS011;55784;50.734;7.086;2023-11-22T08:32:29;6.68;;;1.95;;
68800;SDS011;55784;50.734;7.086;2023-11-22T08:34:58;7.00;;;2.15;;
68800;SDS011;55784;50.734;7.086;2023-11-22T08:37:23;7.03;;;2.00;;
68800;SDS011;55784;50.734;7.086;2023-11-22T08:39:49;7.13;;;2.00;;
68800;SDS011;55784;50.734;7.086;2023-11-22T08:42:14;7.93;;;2.27;;
68800;SDS011;55784;50.734;7.086;2023-11-22T08:44:40;7.30;;;2.15;;
68800;SDS011;55784;50.734;7.086;2023-11-22T08:47:06;7.63;;;2.10;;
68800;SDS011;55784;50.734;7.086;2023-11-22T08:49:33;7.63;;;2.50;;
68800;SDS011;55784;50.734;7.086;2023-11-22T08:51:58;9.90;;;3.22;;
68800;SDS011;55784;50.734;7.086;2023-11-22T08:54:24;7.10;;;2.10;;
68800;SDS011;55784;50.734;7.086;2023-11-22T08:56:53;18.60;;;6.10;;
68800;SDS011;55784;50.734;7.086;2023-11-22T08:59:21;8.60;;;2.70;;
68800;SDS011;55784;50.734;7.086;2023-11-22T09:01:46;9.17;;;1.97;;
68800;SDS011;55784;50.734;7.086;2023-11-22T09:04:12;7.00;;;2.20;;
68800;SDS011;55784;50.734;7.086;2023-11-22T09:06:37;7.50;;;2.20;;
68800;SDS011;55784;50.734;7.086;2023-11-22T09:09:02;8.23;;;2.20;;
68800;SDS011;55784;50.734;7.086;2023-11-22T09:11:28;8.30;;;2.22;;
68800;SDS011;55784;50.734;7.086;2023-11-22T09:13:53;7.83;;;2.37;;
68800;SDS011;55784;50.734;7.086;2023-11-22T09:16:21;7.10;;;2.33;;
68800;SDS011;55784;50.734;7.086;2023-11-22T09:18:49;7.45;;;2.65;;
68800;SDS011;55784;50.734;7.086;2023-11-22T09:21:15;14.20;;;2.90;;
68800;SDS011;55784;50.734;7.086;2023-11-22T09:23:42;8.07;;;2.42;;
68800;SDS011;55784;50.734;7.086;2023-11-22T09:26:08;7.63;;;2.33;;
68800;SDS011;55784;50.734;7.086;2023-11-22T09:28:33;7.20;;;2.00;;
68800;SDS011;55784;50.734;7.086;2023-11-22T09:30:59;7.55;;;2.10;;
68800;SDS011;55784;50.734;7.086;2023-11-22T09:33:30;7.87;;;2.30;;
68800;SDS011;55784;50.734;7.086;2023-11-22T09:35:57;9.10;;;2.28;;
68800;SDS011;55784;50.734;7.086;2023-11-22T09:38:23;6.75;;;2.00;;
68800;SDS011;55784;50.734;7.086;2023-11-22T09:40:49;6.93;;;2.08;;
68800;SDS011;55784;50.734;7.086;2023-11-22T09:43:16;7.95;;;1.75;;
68800;SDS011;55784;50.734;7.086;2023-11-22T09:45:46;6.77;;;1.90;;
68800;SDS011;55784;50.734;7.086;2023-11-22T09:48:19;5.88;;;1.70;;
68800;SDS011;55784;50.734;7.086;2023-11-22T09:53:33;7.82;;;1.85;;
68800;SDS011;55784;50.734;7.086;2023-11-22T09:56:02;6.03;;;1.60;;
68800;SDS011;55784;50.734;7.086;2023-11-22T09:58:32;7.03;;;1.60;;
68800;SDS011;55784;50.734;7.086;2023-11-22T10:01:02;7.13;;;1.70;;
68800;SDS011;55784;50.734;7.086;2023-11-22T10:03:29;6.30;;;1.80;;
68800;SDS011;55784;50.734;7.086;2023-11-22T10:05:55;7.35;;;2.45;;
68800;SDS011;55784;50.734;7.086;2023-11-22T10:08:22;8.20;;;1.80;;
68800;SDS011;55784;50.734;7.086;2023-11-22T10:10:48;5.80;;;1.70;;
68800;SDS011;55784;50.734;7.086;2023-11-22T10:13:16;7.30;;;1.80;;
68800;SDS011;55784;50.734;7.086;2023-11-22T10:15:45;5.78;;;1.67;;
68800;SDS011;55784;50.734;7.086;2023-11-22T10:18:10;6.10;;;1.60;;
68800;SDS011;55784;50.734;7.086;2023-11-22T10:20:42;6.43;;;1.70;;
68800;SDS011;55784;50.734;7.086;2023-11-22T10:23:11;6.63;;;1.60;;
68800;SDS011;55784;50.734;7.086;2023-11-22T10:25:44;7.75;;;1.90;;
68800;SDS011;55784;50.734;7.086;2023-11-22T10:28:15;5.68;;;1.58;;
68800;SDS011;55784;50.734;7.086;2023-11-22T10:30:42;5.70;;;1.57;;
68800;SDS011;55784;50.734;7.086;2023-11-22T10:33:09;6.57;;;1.85;;
68800;SDS011;55784;50.734;7.086;2023-11-22T10:35:38;6.05;;;1.48;;
68800;SDS011;55784;50.734;7.086;2023-11-22T10:38:14;7.25;;;1.80;;
68800;SDS011;55784;50.734;7.086;2023-11-22T10:40:42;5.45;;;1.50;;
68800;SDS011;55784;50.734;7.086;2023-11-22T10:43:11;6.78;;;2.03;;
68800;SDS011;55784;50.734;7.086;2023-11-22T10:45:37;6.20;;;1.60;;
68800;SDS011;55784;50.734;7.086;2023-11-22T10:48:02;7.35;;;1.77;;
68800;SDS011;55784;50.734;7.086;2023-11-22T10:50:28;5.80;;;1.73;;
68800;SDS011;55784;50.734;7.086;2023-11-22T10:52:56;6.70;;;1.70;;
68800;SDS011;55784;50.734;7.086;2023-11-22T10:55:26;5.90;;;1.80;;
68800;SDS011;55784;50.734;7.086;2023-11-22T10:57:53;6.53;;;1.90;;
68800;SDS011;55784;50.734;7.086;2023-11-22T11:00:21;7.95;;;2.50;;
68800;SDS011;55784;50.734;7.086;2023-11-22T11:02:51;10.00;;;4.03;;
68800;SDS011;55784;50.734;7.086;2023-11-22T11:05:27;8.73;;;2.30;;
68800;SDS011;55784;50.734;7.086;2023-11-22T11:07:59;8.10;;;1.95;;
68800;SDS011;55784;50.734;7.086;2023-11-22T11:10:42;7.00;;;2.15;;
68800;SDS011;55784;50.734;7.086;2023-11-22T11:13:09;6.60;;;1.80;;
68800;SDS011;55784;50.734;7.086;2023-11-22T11:15:36;5.63;;;1.63;;
68800;SDS011;55784;50.734;7.086;2023-11-22T11:18:05;7.53;;;1.60;;
68800;SDS011;55784;50.734;7.086;2023-11-22T11:23:24;7.10;;;2.35;;
68800;SDS011;55784;50.734;7.086;2023-11-22T11:25:54;8.23;;;1.90;;
68800;SDS011;55784;50.734;7.086;2023-11-22T11:28:21;6.85;;;2.17;;
68800;SDS011;55784;50.734;7.086;2023-11-22T11:30:51;5.40;;;1.50;;
68800;SDS011;55784;50.734;7.086;2023-11-22T11:33:27;5.75;;;1.45;;
68800;SDS011;55784;50.734;7.086;2023-11-22T11:35:57;5.18;;;1.35;;
68800;SDS011;55784;50.734;7.086;2023-11-22T11:38:32;6.35;;;1.65;;
68800;SDS011;55784;50.734;7.086;2023-11-22T11:41:09;5.88;;;1.25;;
68800;SDS011;55784;50.734;7.086;2023-11-22T11:43:55;6.77;;;1.90;;
68800;SDS011;55784;50.734;7.086;2023-11-22T11:46:21;6.68;;;1.40;;
68800;SDS011;55784;50.734;7.086;2023-11-22T11:48:51;6.30;;;1.80;;
68800;SDS011;55784;50.734;7.086;2023-11-22T11:51:18;5.32;;;1.40;;
68800;SDS011;55784;50.734;7.086;2023-11-22T11:53:47;5.80;;;1.50;;
68800;SDS011;55784;50.734;7.086;2023-11-22T11:56:14;5.27;;;1.30;;
68800;SDS011;55784;50.734;7.086;2023-11-22T11:58:49;5.70;;;1.45;;
68800;SDS011;55784;50.734;7.086;2023-11-22T12:01:16;6.05;;;1.80;;
68800;SDS011;55784;50.734;7.086;2023-11-22T12:03:44;5.40;;;1.60;;
68800;SDS011;55784;50.734;7.086;2023-11-22T12:06:10;6.17;;;1.37;;
68800;SDS011;55784;50.734;7.086;2023-11-22T12:08:41;6.65;;;1.50;;
68800;SDS011;55784;50.734;7.086;2023-11-22T12:11:06;5.80;;;1.40;;
68800;SDS011;55784;50.734;7.086;2023-11-22T12:13:33;6.32;;;1.60;;
68800;SDS011;55784;50.734;7.086;2023-11-22T12:16:00;6.00;;;1.60;;
68800;SDS011;55784;50.734;7.086;2023-11-22T12:18:28;5.78;;;1.70;;
68800;SDS011;55784;50.734;7.086;2023-11-22T12:20:57;6.33;;;1.57;;
68800;SDS011;55784;50.734;7.086;2023-11-22T12:23:24;5.32;;;1.38;;
68800;SDS011;55784;50.734;7.086;2023-11-22T12:25:59;5.80;;;1.40;;
68800;SDS011;55784;50.734;7.086;2023-11-22T12:28:27;7.03;;;1.50;;
68800;SDS011;55784;50.734;7.086;2023-11-22T12:30:53;5.72;;;1.60;;
68800;SDS011;55784;50.734;7.086;2023-11-22T12:33:18;6.53;;;1.50;;
68800;SDS011;55784;50.734;7.086;2023-11-22T12:35:45;5.50;;;1.30;;
68800;SDS011;55784;50.734;7.086;2023-11-22T12:38:11;5.93;;;1.63;;
68800;SDS011;55784;50.734;7.086;2023-11-22T12:40:37;6.60;;;1.50;;
68800;SDS011;55784;50.734;7.086;2023-11-22T12:43:02;5.80;;;1.40;;
68800;SDS011;55784;50.734;7.086;2023-11-22T12:45:29;4.85;;;1.27;;
68800;SDS011;55784;50.734;7.086;2023-11-22T12:47:56;6.57;;;1.50;;
68800;SDS011;55784;50.734;7.086;2023-11-22T12:50:57;5.87;;;1.23;;
68800;SDS011;55784;50.734;7.086;2023-11-22T12:53:17;5.68;;;1.30;;
68800;SDS011;55784;50.734;7.086;2023-11-22T12:55:46;5.30;;;1.30;;
68800;SDS011;55784;50.734;7.086;2023-11-22T12:58:21;5.45;;;1.27;;
68800;SDS011;55784;50.734;7.086;2023-11-22T13:00:48;5.55;;;1.30;;
68800;SDS011;55784;50.734;7.086;2023-11-22T13:03:14;6.07;;;1.35;;
68800;SDS011;55784;50.734;7.086;2023-11-22T13:05:41;6.53;;;1.20;;
68800;SDS011;55784;50.734;7.086;2023-11-22T13:08:11;6.00;;;1.45;;
68800;SDS011;55784;50.734;7.086;2023-11-22T13:10:38;6.50;;;1.73;;
68800;SDS011;55784;50.734;7.086;2023-11-22T13:13:18;6.82;;;1.40;;
68800;SDS011;55784;50.734;7.086;2023-11-22T13:15:47;9.35;;;2.13;;
68800;SDS011;55784;50.734;7.086;2023-11-22T13:18:14;6.38;;;1.95;;
68800;SDS011;55784;50.734;7.086;2023-11-22T13:20:41;5.78;;;1.60;;
68800;SDS011;55784;50.734;7.086;2023-11-22T13:23:07;7.43;;;1.52;;
68800;SDS011;55784;50.734;7.086;2023-11-22T13:25:33;6.65;;;1.60;;
68800;SDS011;55784;50.734;7.086;2023-11-22T13:27:59;5.47;;;1.40;;
68800;SDS011;55784;50.734;7.086;2023-11-22T13:30:24;5.85;;;1.40;;
68800;SDS011;55784;50.734;7.086;2023-11-22T13:32:53;5.43;;;1.33;;
68800;SDS011;55784;50.734;7.086;2023-11-22T13:35:22;7.22;;;1.50;;
68800;SDS011;55784;50.734;7.086;2023-11-22T13:37:49;5.32;;;1.23;;
68800;SDS011;55784;50.734;7.086;2023-11-22T13:40:15;5.35;;;1.30;;
68800;SDS011;55784;50.734;7.086;2023-11-22T13:42:47;5.20;;;1.30;;
68800;SDS011;55784;50.734;7.086;2023-11-22T13:45:15;5.28;;;1.30;;
68800;SDS011;55784;50.734;7.086;2023-11-22T13:47:46;5.80;;;1.35;;
68800;SDS011;55784;50.734;7.086;2023-11-22T13:50:13;5.80;;;1.20;;
68800;SDS011;55784;50.734;7.086;2023-11-22T13:52:40;5.07;;;1.00;;
68800;SDS011;55784;50.734;7.086;2023-11-22T13:55:06;5.20;;;1.20;;
68800;SDS011;55784;50.734;7.086;2023-11-22T13:57:35;5.13;;;1.35;;
68800;SDS011;55784;50.734;7.086;2023-11-22T14:00:01;8.00;;;1.57;;
68800;SDS011;55784;50.734;7.086;2023-11-22T14:02:32;6.18;;;1.42;;
68800;SDS011;55784;50.734;7.086;2023-11-22T14:04:57;4.93;;;1.27;;
68800;SDS011;55784;50.734;7.086;2023-11-22T14:07:24;6.05;;;1.13;;
68800;SDS011;55784;50.734;7.086;2023-11-22T14:09:49;4.87;;;0.97;;
68800;SDS011;55784;50.734;7.086;2023-11-22T14:12:15;4.30;;;1.10;;
68800;SDS011;55784;50.734;7.086;2023-11-22T14:14:43;5.80;;;1.17;;
68800;SDS011;55784;50.734;7.086;2023-11-22T14:17:09;6.88;;;1.00;;
68800;SDS011;55784;50.734;7.086;2023-11-22T14:19:35;13.50;;;1.23;;
68800;SDS011;55784;50.734;7.086;2023-11-22T14:22:00;5.27;;;1.10;;
68800;SDS011;55784;50.734;7.086;2023-11-22T14:24:26;5.85;;;1.10;;
68800;SDS011;55784;50.734;7.086;2023-11-22T14:26:54;4.50;;;1.08;;
68800;SDS011;55784;50.734;7.086;2023-11-22T14:29:20;6.67;;;1.10;;
68800;SDS011;55784;50.734;7.086;2023-11-22T14:31:45;4.60;;;1.10;;
68800;SDS011;55784;50.734;7.086;2023-11-22T14:34:10;5.30;;;1.13;;
68800;SDS011;55784;50.734;7.086;2023-11-22T14:36:37;5.07;;;1.20;;
68800;SDS011;55784;50.734;7.086;2023-11-22T14:39:03;5.68;;;1.20;;
68800;SDS011;55784;50.734;7.086;2023-11-22T14:41:31;4.30;;;1.00;;
68800;SDS011;55784;50.734;7.086;2023-11-22T14:43:57;7.65;;;1.40;;
68800;SDS011;55784;50.734;7.086;2023-11-22T14:46:22;5.30;;;1.30;;